sensor_id;sensor_type;location;lat;lon;timestamp;temperature;humidity
10512;DHT22;5304;48.604;2.096;2023-08-31T04:07:34;13.30;99.90
10512;DHT22;5304;48.604;2.096;2023-08-31T04:10:19;13.30;99.90
10512;DHT22;5304;48.604;2.096;2023-08-31T04:13:03;13.30;99.90
10512;DHT22;5304;48.604;2.096;2023-08-31T04:15:47;13.30;99.90
10512;DHT22;5304;48.604;2.096;2023-08-31T04:18:32;13.30;99.90
10512;DHT22;5304;48.604;2.096;2023-08-31T04:21:16;13.30;99.90
10512;DHT22;5304;48.604;2.096;2023-08-31T04:24:01;13.30;99.90
10512;DHT22;5304;48.604;2.096;2023-08-31T04:26:45;13.30;99.90
10512;DHT22;5304;48.604;2.096;2023-08-31T04:29:29;13.30;99.90
10512;DHT22;5304;48.604;2.096;2023-08-31T04:32:13;13.30;99.90
10512;DHT22;5304;48.604;2.096;2023-08-31T04:34:57;13.30;99.90
10512;DHT22;5304;48.604;2.096;2023-08-31T04:37:42;13.20;99.90
10512;DHT22;5304;48.604;2.096;2023-08-31T04:40:27;13.30;99.90
10512;DHT22;5304;48.604;2.096;2023-08-31T04:43:13;13.30;99.90
10512;DHT22;5304;48.604;2.096;2023-08-31T04:45:57;13.20;99.90
10512;DHT22;5304;48.604;2.096;2023-08-31T04:48:41;13.30;99.90
10512;DHT22;5304;48.604;2.096;2023-08-31T04:51:33;13.30;99.90
10512;DHT22;5304;48.604;2.096;2023-08-31T04:54:17;13.30;99.90
10512;DHT22;5304;48.604;2.096;2023-08-31T04:57:02;13.30;99.90
10512;DHT22;5304;48.604;2.096;2023-08-31T04:59:47;13.30;99.90
10512;DHT22;5304;48.604;2.096;2023-08-31T05:02:31;13.30;99.90
10512;DHT22;5304;48.604;2.096;2023-08-31T05:05:16;13.40;99.90
10512;DHT22;5304;48.604;2.096;2023-08-31T05:08:02;13.30;99.90
10512;DHT22;5304;48.604;2.096;2023-08-31T05:10:47;13.30;99.90
10512;DHT22;5304;48.604;2.096;2023-08-31T05:13:31;13.30;99.90
10512;DHT22;5304;48.604;2.096;2023-08-31T05:16:16;13.30;99.90
10512;DHT22;5304;48.604;2.096;2023-08-31T05:19:00;13.30;99.90
10512;DHT22;5304;48.604;2.096;2023-08-31T05:21:44;13.40;99.90
10512;DHT22;5304;48.604;2.096;2023-08-31T05:24:28;13.40;99.90
10512;DHT22;5304;48.604;2.096;2023-08-31T05:27:13;13.40;99.90
10512;DHT22;5304;48.604;2.096;2023-08-31T05:29:57;13.40;99.90
10512;DHT22;5304;48.604;2.096;2023-08-31T05:32:41;13.40;99.90
10512;DHT22;5304;48.604;2.096;2023-08-31T05:35:26;13.50;99.90
10512;DHT22;5304;48.604;2.096;2023-08-31T05:38:10;13.50;99.90
10512;DHT22;5304;48.604;2.096;2023-08-31T05:41:06;13.50;99.90
10512;DHT22;5304;48.604;2.096;2023-08-31T05:43:51;13.50;99.90
10512;DHT22;5304;48.604;2.096;2023-08-31T05:46:36;13.50;99.90
10512;DHT22;5304;48.604;2.096;2023-08-31T05:49:20;13.50;99.90
10512;DHT22;5304;48.604;2.096;2023-08-31T05:52:05;13.60;99.90
10512;DHT22;5304;48.604;2.096;2023-08-31T05:54:49;13.60;99.90
10512;DHT22;5304;48.604;2.096;2023-08-31T05:57:34;13.60;99.90
10512;DHT22;5304;48.604;2.096;2023-08-31T06:00:18;13.70;99.90
10512;DHT22;5304;48.604;2.096;2023-08-31T06:03:03;13.70;99.90
10512;DHT22;5304;48.604;2.096;2023-08-31T06:05:49;13.80;99.90
10512;DHT22;5304;48.604;2.096;2023-08-31T06:08:34;13.80;99.90
10512;DHT22;5304;48.604;2.096;2023-08-31T06:11:18;13.90;99.90
10512;DHT22;5304;48.604;2.096;2023-08-31T06:14:03;13.90;99.90
10512;DHT22;5304;48.604;2.096;2023-08-31T06:16:47;14.00;99.90
10512;DHT22;5304;48.604;2.096;2023-08-31T06:19:31;14.10;99.90
10512;DHT22;5304;48.604;2.096;2023-08-31T06:22:16;14.20;99.90
10512;DHT22;5304;48.604;2.096;2023-08-31T06:25:00;14.30;99.90
10512;DHT22;5304;48.604;2.096;2023-08-31T06:27:44;14.30;99.90
10512;DHT22;5304;48.604;2.096;2023-08-31T06:30:29;14.40;99.90
10512;DHT22;5304;48.604;2.096;2023-08-31T06:33:17;14.50;99.90
10512;DHT22;5304;48.604;2.096;2023-08-31T06:36:02;14.70;99.90
10512;DHT22;5304;48.604;2.096;2023-08-31T06:38:47;14.80;99.90
10512;DHT22;5304;48.604;2.096;2023-08-31T06:41:31;14.90;99.90
10512;DHT22;5304;48.604;2.096;2023-08-31T06:44:16;15.00;99.90
10512;DHT22;5304;48.604;2.096;2023-08-31T06:47:01;15.00;99.90
10512;DHT22;5304;48.604;2.096;2023-08-31T06:49:45;15.00;99.90
10512;DHT22;5304;48.604;2.096;2023-08-31T06:52:29;15.00;99.90
10512;DHT22;5304;48.604;2.096;2023-08-31T06:55:14;15.10;99.90
10512;DHT22;5304;48.604;2.096;2023-08-31T06:57:58;15.10;99.90
10512;DHT22;5304;48.604;2.096;2023-08-31T07:00:42;15.30;99.90
10512;DHT22;5304;48.604;2.096;2023-08-31T07:03:27;15.30;99.90
10512;DHT22;5304;48.604;2.096;2023-08-31T07:06:11;15.30;99.90
10512;DHT22;5304;48.604;2.096;2023-08-31T07:08:55;15.30;99.90
10512;DHT22;5304;48.604;2.096;2023-08-31T07:11:40;15.50;99.90
10512;DHT22;5304;48.604;2.096;2023-08-31T07:14:24;15.60;99.90
10512;DHT22;5304;48.604;2.096;2023-08-31T07:17:09;16.00;99.90
10512;DHT22;5304;48.604;2.096;2023-08-31T07:19:53;16.20;99.90
10512;DHT22;5304;48.604;2.096;2023-08-31T07:22:37;16.20;99.90
10512;DHT22;5304;48.604;2.096;2023-08-31T07:25:21;16.20;99.90
10512;DHT22;5304;48.604;2.096;2023-08-31T07:28:06;16.30;99.90
10512;DHT22;5304;48.604;2.096;2023-08-31T07:31:06;16.40;99.90
10512;DHT22;5304;48.604;2.096;2023-08-31T07:33:50;16.30;99.90
10512;DHT22;5304;48.604;2.096;2023-08-31T07:36:34;16.20;99.90
10512;DHT22;5304;48.604;2.096;2023-08-31T07:39:19;16.30;99.90
10512;DHT22;5304;48.604;2.096;2023-08-31T07:42:05;16.30;99.90
10512;DHT22;5304;48.604;2.096;2023-08-31T07:44:49;16.50;99.90
10512;DHT22;5304;48.604;2.096;2023-08-31T07:47:33;17.20;99.90
10512;DHT22;5304;48.604;2.096;2023-08-31T07:50:18;17.70;99.90
10512;DHT22;5304;48.604;2.096;2023-08-31T07:53:02;17.80;99.90
10512;DHT22;5304;48.604;2.096;2023-08-31T07:55:52;17.80;99.90
10512;DHT22;5304;48.604;2.096;2023-08-31T07:58:38;17.70;99.90
10512;DHT22;5304;48.604;2.096;2023-08-31T08:01:22;17.50;99.90
10512;DHT22;5304;48.604;2.096;2023-08-31T08:04:07;17.50;99.90
10512;DHT22;5304;48.604;2.096;2023-08-31T08:06:51;17.30;99.90
10512;DHT22;5304;48.604;2.096;2023-08-31T08:09:35;17.20;99.90
10512;DHT22;5304;48.604;2.096;2023-08-31T08:12:20;17.20;99.90
10512;DHT22;5304;48.604;2.096;2023-08-31T08:15:04;17.20;99.90
10512;DHT22;5304;48.604;2.096;2023-08-31T08:17:49;17.10;99.90
10512;DHT22;5304;48.604;2.096;2023-08-31T08:20:33;17.20;99.90
10512;DHT22;5304;48.604;2.096;2023-08-31T08:23:18;17.20;99.90
10512;DHT22;5304;48.604;2.096;2023-08-31T08:26:02;17.30;99.90
10512;DHT22;5304;48.604;2.096;2023-08-31T08:28:46;17.40;99.90
10512;DHT22;5304;48.604;2.096;2023-08-31T08:31:31;17.60;99.90
10512;DHT22;5304;48.604;2.096;2023-08-31T08:34:15;17.70;99.90
10512;DHT22;5304;48.604;2.096;2023-08-31T08:37:00;17.70;99.90
10512;DHT22;5304;48.604;2.096;2023-08-31T08:39:48;17.70;99.90
10512;DHT22;5304;48.604;2.096;2023-08-31T08:42:39;17.70;99.90
10512;DHT22;5304;48.604;2.096;2023-08-31T08:45:31;17.80;99.90
10512;DHT22;5304;48.604;2.096;2023-08-31T08:48:20;17.90;99.90
10512;DHT22;5304;48.604;2.096;2023-08-31T08:51:06;18.00;99.90
10512;DHT22;5304;48.604;2.096;2023-08-31T08:53:51;18.10;99.90
10512;DHT22;5304;48.604;2.096;2023-08-31T08:56:36;18.10;99.90
10512;DHT22;5304;48.604;2.096;2023-08-31T08:59:20;18.30;99.90
10512;DHT22;5304;48.604;2.096;2023-08-31T09:02:04;18.20;99.90
10512;DHT22;5304;48.604;2.096;2023-08-31T09:04:49;18.20;99.90
10512;DHT22;5304;48.604;2.096;2023-08-31T09:07:36;18.10;99.90
10512;DHT22;5304;48.604;2.096;2023-08-31T09:10:21;18.10;99.90
10512;DHT22;5304;48.604;2.096;2023-08-31T09:13:10;18.20;99.90
10512;DHT22;5304;48.604;2.096;2023-08-31T09:15:55;18.30;99.90
10512;DHT22;5304;48.604;2.096;2023-08-31T09:18:40;18.30;99.90
10512;DHT22;5304;48.604;2.096;2023-08-31T09:21:37;18.30;99.90
10512;DHT22;5304;48.604;2.096;2023-08-31T09:24:24;18.40;99.90
10512;DHT22;5304;48.604;2.096;2023-08-31T09:27:08;18.40;99.90
10512;DHT22;5304;48.604;2.096;2023-08-31T09:29:55;18.40;99.90
10512;DHT22;5304;48.604;2.096;2023-08-31T09:32:40;18.40;99.90
10512;DHT22;5304;48.604;2.096;2023-08-31T09:35:25;18.40;99.90
10512;DHT22;5304;48.604;2.096;2023-08-31T09:38:10;18.50;99.90
10512;DHT22;5304;48.604;2.096;2023-08-31T09:41:07;18.40;99.90
10512;DHT22;5304;48.604;2.096;2023-08-31T09:43:51;18.40;99.90
10512;DHT22;5304;48.604;2.096;2023-08-31T09:46:35;18.40;99.90
10512;DHT22;5304;48.604;2.096;2023-08-31T09:49:21;18.40;99.90
10512;DHT22;5304;48.604;2.096;2023-08-31T09:52:05;18.30;99.90
10512;DHT22;5304;48.604;2.096;2023-08-31T09:54:51;18.30;99.90
10512;DHT22;5304;48.604;2.096;2023-08-31T09:57:38;18.30;99.90
10512;DHT22;5304;48.604;2.096;2023-08-31T10:00:23;18.40;99.90
10512;DHT22;5304;48.604;2.096;2023-08-31T10:03:08;18.40;99.90
10512;DHT22;5304;48.604;2.096;2023-08-31T10:05:54;18.40;99.90
10512;DHT22;5304;48.604;2.096;2023-08-31T10:08:39;18.40;99.90
10512;DHT22;5304;48.604;2.096;2023-08-31T10:11:27;18.40;99.90
10512;DHT22;5304;48.604;2.096;2023-08-31T10:14:13;18.30;99.90
10512;DHT22;5304;48.604;2.096;2023-08-31T10:16:58;18.40;99.90
10512;DHT22;5304;48.604;2.096;2023-08-31T10:19:42;18.30;99.90
10512;DHT22;5304;48.604;2.096;2023-08-31T10:22:27;18.50;99.90
10512;DHT22;5304;48.604;2.096;2023-08-31T10:25:11;18.50;99.90
10512;DHT22;5304;48.604;2.096;2023-08-31T10:27:56;18.50;99.90
10512;DHT22;5304;48.604;2.096;2023-08-31T10:30:40;18.50;99.90
10512;DHT22;5304;48.604;2.096;2023-08-31T10:33:26;18.50;99.90
10512;DHT22;5304;48.604;2.096;2023-08-31T10:36:15;18.50;99.90
10512;DHT22;5304;48.604;2.096;2023-08-31T10:39:01;18.60;99.90
10512;DHT22;5304;48.604;2.096;2023-08-31T10:41:55;18.60;99.90
10512;DHT22;5304;48.604;2.096;2023-08-31T10:44:42;18.60;99.90
10512;DHT22;5304;48.604;2.096;2023-08-31T10:47:38;18.60;99.90
10512;DHT22;5304;48.604;2.096;2023-08-31T10:50:24;18.50;99.90
10512;DHT22;5304;48.604;2.096;2023-08-31T10:53:09;18.60;99.90
10512;DHT22;5304;48.604;2.096;2023-08-31T10:55:54;18.70;99.90
10512;DHT22;5304;48.604;2.096;2023-08-31T10:58:38;18.70;99.90
10512;DHT22;5304;48.604;2.096;2023-08-31T11:01:57;18.70;99.90
10512;DHT22;5304;48.604;2.096;2023-08-31T11:07:49;18.40;99.90
10512;DHT22;5304;48.604;2.096;2023-08-31T11:10:34;18.30;99.90
10512;DHT22;5304;48.604;2.096;2023-08-31T11:13:19;18.20;99.90
10512;DHT22;5304;48.604;2.096;2023-08-31T11:16:04;18.30;99.90
10512;DHT22;5304;48.604;2.096;2023-08-31T11:18:49;18.30;99.90
10512;DHT22;5304;48.604;2.096;2023-08-31T11:21:36;18.30;99.90
10512;DHT22;5304;48.604;2.096;2023-08-31T11:24:21;18.30;99.90
10512;DHT22;5304;48.604;2.096;2023-08-31T11:27:09;18.50;99.90
10512;DHT22;5304;48.604;2.096;2023-08-31T11:29:54;18.60;99.90
10512;DHT22;5304;48.604;2.096;2023-08-31T11:32:47;18.60;99.90
10512;DHT22;5304;48.604;2.096;2023-08-31T11:35:43;18.70;99.90
10512;DHT22;5304;48.604;2.096;2023-08-31T11:38:28;18.70;99.90
10512;DHT22;5304;48.604;2.096;2023-08-31T11:41:13;18.80;99.90
10512;DHT22;5304;48.604;2.096;2023-08-31T11:43:57;18.80;99.90
10512;DHT22;5304;48.604;2.096;2023-08-31T11:46:43;18.70;99.90
10512;DHT22;5304;48.604;2.096;2023-08-31T11:49:29;18.70;99.90
10512;DHT22;5304;48.604;2.096;2023-08-31T11:52:13;18.60;99.90
10512;DHT22;5304;48.604;2.096;2023-08-31T11:54:58;18.50;99.90
10512;DHT22;5304;48.604;2.096;2023-08-31T11:57:50;18.50;99.90
10512;DHT22;5304;48.604;2.096;2023-08-31T12:00:34;18.30;99.90
10512;DHT22;5304;48.604;2.096;2023-08-31T12:03:18;18.30;99.90
10512;DHT22;5304;48.604;2.096;2023-08-31T12:06:03;18.20;99.90
10512;DHT22;5304;48.604;2.096;2023-08-31T12:08:49;18.00;99.90
10512;DHT22;5304;48.604;2.096;2023-08-31T12:11:34;17.80;99.90
10512;DHT22;5304;48.604;2.096;2023-08-31T12:14:25;17.70;99.90
10512;DHT22;5304;48.604;2.096;2023-08-31T12:17:09;17.60;99.90
10512;DHT22;5304;48.604;2.096;2023-08-31T12:20:02;17.60;99.90
10512;DHT22;5304;48.604;2.096;2023-08-31T12:22:48;17.50;99.90
10512;DHT22;5304;48.604;2.096;2023-08-31T12:25:32;17.40;99.90
10512;DHT22;5304;48.604;2.096;2023-08-31T12:28:17;17.50;99.90
10512;DHT22;5304;48.604;2.096;2023-08-31T12:31:02;17.50;99.90
10512;DHT22;5304;48.604;2.096;2023-08-31T12:33:46;17.40;99.90
10512;DHT22;5304;48.604;2.096;2023-08-31T12:36:32;17.40;99.90
10512;DHT22;5304;48.604;2.096;2023-08-31T12:39:16;17.30;99.90
10512;DHT22;5304;48.604;2.096;2023-08-31T12:42:01;17.20;99.90
10512;DHT22;5304;48.604;2.096;2023-08-31T12:44:45;17.20;99.90
10512;DHT22;5304;48.604;2.096;2023-08-31T12:47:29;17.20;99.90
10512;DHT22;5304;48.604;2.096;2023-08-31T12:50:14;17.30;99.90
10512;DHT22;5304;48.604;2.096;2023-08-31T12:52:58;17.30;99.90
10512;DHT22;5304;48.604;2.096;2023-08-31T12:55:42;17.30;99.90
10512;DHT22;5304;48.604;2.096;2023-08-31T12:58:27;17.30;99.90
10512;DHT22;5304;48.604;2.096;2023-08-31T13:01:11;17.30;99.90
10512;DHT22;5304;48.604;2.096;2023-08-31T13:03:56;17.20;99.90
10512;DHT22;5304;48.604;2.096;2023-08-31T13:06:40;17.20;99.90
10512;DHT22;5304;48.604;2.096;2023-08-31T13:09:24;17.10;99.90
10512;DHT22;5304;48.604;2.096;2023-08-31T13:12:08;17.10;99.90
10512;DHT22;5304;48.604;2.096;2023-08-31T13:14:53;17.10;99.90
10512;DHT22;5304;48.604;2.096;2023-08-31T13:17:37;17.10;99.90
10512;DHT22;5304;48.604;2.096;2023-08-31T13:20:21;17.10;99.90
10512;DHT22;5304;48.604;2.096;2023-08-31T13:23:07;17.10;99.90
10512;DHT22;5304;48.604;2.096;2023-08-31T13:25:51;17.20;99.90
10512;DHT22;5304;48.604;2.096;2023-08-31T13:28:35;17.30;99.90
10512;DHT22;5304;48.604;2.096;2023-08-31T13:31:19;17.30;99.90
10512;DHT22;5304;48.604;2.096;2023-08-31T13:34:04;17.40;99.90
10512;DHT22;5304;48.604;2.096;2023-08-31T13:36:50;17.50;99.90
10512;DHT22;5304;48.604;2.096;2023-08-31T13:39:36;17.60;99.90
10512;DHT22;5304;48.604;2.096;2023-08-31T13:42:21;17.60;99.90
10512;DHT22;5304;48.604;2.096;2023-08-31T13:45:06;17.60;99.90
10512;DHT22;5304;48.604;2.096;2023-08-31T13:47:51;17.70;99.90
10512;DHT22;5304;48.604;2.096;2023-08-31T13:50:35;17.70;99.90
10512;DHT22;5304;48.604;2.096;2023-08-31T13:53:19;17.70;99.90
10512;DHT22;5304;48.604;2.096;2023-08-31T13:56:04;17.70;99.90
10512;DHT22;5304;48.604;2.096;2023-08-31T13:58:49;17.70;99.90
10512;DHT22;5304;48.604;2.096;2023-08-31T14:01:34;17.70;99.90
10512;DHT22;5304;48.604;2.096;2023-08-31T14:04:18;17.70;99.90
10512;DHT22;5304;48.604;2.096;2023-08-31T14:07:02;17.70;99.90
10512;DHT22;5304;48.604;2.096;2023-08-31T14:09:47;17.70;99.90
10512;DHT22;5304;48.604;2.096;2023-08-31T14:12:32;17.70;99.90
10512;DHT22;5304;48.604;2.096;2023-08-31T14:15:17;17.70;99.90
10512;DHT22;5304;48.604;2.096;2023-08-31T14:18:01;17.80;99.90
10512;DHT22;5304;48.604;2.096;2023-08-31T14:20:46;17.80;99.90
10512;DHT22;5304;48.604;2.096;2023-08-31T14:23:30;17.70;99.90
10512;DHT22;5304;48.604;2.096;2023-08-31T14:26:15;17.60;99.90
10512;DHT22;5304;48.604;2.096;2023-08-31T14:28:59;17.70;99.90
10512;DHT22;5304;48.604;2.096;2023-08-31T14:31:44;17.70;99.90
10512;DHT22;5304;48.604;2.096;2023-08-31T14:34:28;17.80;99.90
10512;DHT22;5304;48.604;2.096;2023-08-31T14:37:13;17.80;99.90
10512;DHT22;5304;48.604;2.096;2023-08-31T14:39:57;17.90;99.90
10512;DHT22;5304;48.604;2.096;2023-08-31T14:42:41;18.00;99.90
10512;DHT22;5304;48.604;2.096;2023-08-31T14:45:25;18.10;99.90
10512;DHT22;5304;48.604;2.096;2023-08-31T14:48:10;18.20;99.90
10512;DHT22;5304;48.604;2.096;2023-08-31T14:50:54;18.30;99.90
10512;DHT22;5304;48.604;2.096;2023-08-31T14:53:38;18.30;99.90
10512;DHT22;5304;48.604;2.096;2023-08-31T14:56:24;18.30;99.90
10512;DHT22;5304;48.604;2.096;2023-08-31T14:59:08;18.40;99.90
10512;DHT22;5304;48.604;2.096;2023-08-31T15:01:52;18.40;99.90
10512;DHT22;5304;48.604;2.096;2023-08-31T15:04:36;18.40;99.90
10512;DHT22;5304;48.604;2.096;2023-08-31T15:07:20;18.40;99.90
10512;DHT22;5304;48.604;2.096;2023-08-31T15:10:05;18.40;99.90
10512;DHT22;5304;48.604;2.096;2023-08-31T15:12:50;18.50;99.90
10512;DHT22;5304;48.604;2.096;2023-08-31T15:15:38;18.50;99.90
10512;DHT22;5304;48.604;2.096;2023-08-31T15:18:22;18.50;99.90
10512;DHT22;5304;48.604;2.096;2023-08-31T15:21:07;18.50;99.90
10512;DHT22;5304;48.604;2.096;2023-08-31T15:23:51;18.50;99.90
10512;DHT22;5304;48.604;2.096;2023-08-31T15:26:35;18.50;99.90
10512;DHT22;5304;48.604;2.096;2023-08-31T15:29:20;18.50;99.90
10512;DHT22;5304;48.604;2.096;2023-08-31T15:32:05;18.50;99.90
10512;DHT22;5304;48.604;2.096;2023-08-31T15:34:49;18.50;99.90
10512;DHT22;5304;48.604;2.096;2023-08-31T15:37:34;18.50;99.90
10512;DHT22;5304;48.604;2.096;2023-08-31T15:40:18;18.50;99.90
10512;DHT22;5304;48.604;2.096;2023-08-31T15:43:02;18.50;99.90
10512;DHT22;5304;48.604;2.096;2023-08-31T15:45:46;18.40;99.90
10512;DHT22;5304;48.604;2.096;2023-08-31T15:48:31;18.60;99.90
10512;DHT22;5304;48.604;2.096;2023-08-31T15:51:15;18.60;99.90
10512;DHT22;5304;48.604;2.096;2023-08-31T15:54:00;18.70;99.90
10512;DHT22;5304;48.604;2.096;2023-08-31T15:56:48;18.60;99.90
10512;DHT22;5304;48.604;2.096;2023-08-31T15:59:32;18.60;99.90
10512;DHT22;5304;48.604;2.096;2023-08-31T16:02:16;18.60;99.90
10512;DHT22;5304;48.604;2.096;2023-08-31T16:05:05;18.60;99.90
10512;DHT22;5304;48.604;2.096;2023-08-31T16:07:50;18.60;99.90
10512;DHT22;5304;48.604;2.096;2023-08-31T16:10:34;18.60;99.90
10512;DHT22;5304;48.604;2.096;2023-08-31T16:13:18;18.60;99.90
10512;DHT22;5304;48.604;2.096;2023-08-31T16:16:03;18.60;99.90
10512;DHT22;5304;48.604;2.096;2023-08-31T16:18:47;18.70;99.90
10512;DHT22;5304;48.604;2.096;2023-08-31T16:21:32;18.60;99.90
10512;DHT22;5304;48.604;2.096;2023-08-31T16:24:16;18.60;99.90
10512;DHT22;5304;48.604;2.096;2023-08-31T16:27:01;18.60;99.90
10512;DHT22;5304;48.604;2.096;2023-08-31T16:29:45;18.70;99.90
10512;DHT22;5304;48.604;2.096;2023-08-31T16:32:32;18.80;99.90
10512;DHT22;5304;48.604;2.096;2023-08-31T16:35:16;18.90;99.90
10512;DHT22;5304;48.604;2.096;2023-08-31T16:38:01;18.90;99.90
10512;DHT22;5304;48.604;2.096;2023-08-31T16:40:46;19.00;99.90
10512;DHT22;5304;48.604;2.096;2023-08-31T16:43:30;19.00;99.90
10512;DHT22;5304;48.604;2.096;2023-08-31T16:46:15;19.00;99.90
10512;DHT22;5304;48.604;2.096;2023-08-31T16:48:59;19.00;99.90
10512;DHT22;5304;48.604;2.096;2023-08-31T16:51:43;19.00;99.90
10512;DHT22;5304;48.604;2.096;2023-08-31T16:54:27;19.10;99.90
10512;DHT22;5304;48.604;2.096;2023-08-31T16:57:12;19.20;99.90
10512;DHT22;5304;48.604;2.096;2023-08-31T16:59:56;19.20;99.90
10512;DHT22;5304;48.604;2.096;2023-08-31T17:02:40;19.20;99.90
10512;DHT22;5304;48.604;2.096;2023-08-31T17:05:27;19.30;99.90
10512;DHT22;5304;48.604;2.096;2023-08-31T17:08:12;19.30;99.90
10512;DHT22;5304;48.604;2.096;2023-08-31T17:10:56;19.20;99.90
10512;DHT22;5304;48.604;2.096;2023-08-31T17:13:41;19.20;99.90
10512;DHT22;5304;48.604;2.096;2023-08-31T17:16:26;19.20;99.90
10512;DHT22;5304;48.604;2.096;2023-08-31T17:19:10;19.20;99.90
10512;DHT22;5304;48.604;2.096;2023-08-31T17:21:55;19.30;99.90
10512;DHT22;5304;48.604;2.096;2023-08-31T17:24:39;19.30;99.90
10512;DHT22;5304;48.604;2.096;2023-08-31T17:27:24;19.20;99.90
10512;DHT22;5304;48.604;2.096;2023-08-31T17:30:09;19.20;99.90
10512;DHT22;5304;48.604;2.096;2023-08-31T17:32:54;19.20;99.90
10512;DHT22;5304;48.604;2.096;2023-08-31T17:35:39;19.20;99.90
10512;DHT22;5304;48.604;2.096;2023-08-31T17:38:23;19.20;99.90
10512;DHT22;5304;48.604;2.096;2023-08-31T17:41:08;19.30;99.90
10512;DHT22;5304;48.604;2.096;2023-08-31T17:43:52;19.20;99.90
10512;DHT22;5304;48.604;2.096;2023-08-31T17:46:36;19.20;99.90
10512;DHT22;5304;48.604;2.096;2023-08-31T17:49:20;19.10;99.90
10512;DHT22;5304;48.604;2.096;2023-08-31T17:52:04;19.20;99.90
10512;DHT22;5304;48.604;2.096;2023-08-31T17:54:49;19.20;99.90
10512;DHT22;5304;48.604;2.096;2023-08-31T17:57:33;19.20;99.90
10512;DHT22;5304;48.604;2.096;2023-08-31T18:00:18;19.20;99.90
10512;DHT22;5304;48.604;2.096;2023-08-31T18:03:02;19.30;99.90
10512;DHT22;5304;48.604;2.096;2023-08-31T18:05:49;19.20;99.90
10512;DHT22;5304;48.604;2.096;2023-08-31T18:08:35;19.20;99.90
10512;DHT22;5304;48.604;2.096;2023-08-31T18:11:19;19.30;99.90
10512;DHT22;5304;48.604;2.096;2023-08-31T18:14:03;19.30;99.90
10512;DHT22;5304;48.604;2.096;2023-08-31T18:16:49;19.20;99.90
10512;DHT22;5304;48.604;2.096;2023-08-31T18:19:34;19.20;99.90
10512;DHT22;5304;48.604;2.096;2023-08-31T18:22:19;19.10;99.90
10512;DHT22;5304;48.604;2.096;2023-08-31T18:25:05;19.00;99.90
10512;DHT22;5304;48.604;2.096;2023-08-31T18:27:50;19.00;99.90
10512;DHT22;5304;48.604;2.096;2023-08-31T18:30:34;18.90;99.90
10512;DHT22;5304;48.604;2.096;2023-08-31T18:33:18;18.90;99.90
10512;DHT22;5304;48.604;2.096;2023-08-31T18:36:04;18.90;99.90
10512;DHT22;5304;48.604;2.096;2023-08-31T18:38:48;18.90;99.90
10512;DHT22;5304;48.604;2.096;2023-08-31T18:41:33;18.90;99.90
10512;DHT22;5304;48.604;2.096;2023-08-31T18:44:17;18.80;99.90
10512;DHT22;5304;48.604;2.096;2023-08-31T18:47:02;18.80;99.90
10512;DHT22;5304;48.604;2.096;2023-08-31T18:49:48;18.90;99.90
10512;DHT22;5304;48.604;2.096;2023-08-31T18:52:33;18.90;99.90
10512;DHT22;5304;48.604;2.096;2023-08-31T18:55:17;18.90;99.90
10512;DHT22;5304;48.604;2.096;2023-08-31T18:58:03;18.90;99.90
10512;DHT22;5304;48.604;2.096;2023-08-31T19:00:47;18.90;99.90
10512;DHT22;5304;48.604;2.096;2023-08-31T19:03:31;18.90;99.90
10512;DHT22;5304;48.604;2.096;2023-08-31T19:06:16;18.80;99.90
10512;DHT22;5304;48.604;2.096;2023-08-31T19:09:01;18.70;99.90
10512;DHT22;5304;48.604;2.096;2023-08-31T19:11:47;18.70;99.90
10512;DHT22;5304;48.604;2.096;2023-08-31T19:14:31;18.60;99.90
10512;DHT22;5304;48.604;2.096;2023-08-31T19:17:15;18.70;99.90
10512;DHT22;5304;48.604;2.096;2023-08-31T19:19:59;18.70;99.90
10512;DHT22;5304;48.604;2.096;2023-08-31T19:22:45;18.60;99.90
10512;DHT22;5304;48.604;2.096;2023-08-31T19:25:30;18.60;99.90
10512;DHT22;5304;48.604;2.096;2023-08-31T19:28:15;18.60;99.90
10512;DHT22;5304;48.604;2.096;2023-08-31T19:30:59;18.50;99.90
10512;DHT22;5304;48.604;2.096;2023-08-31T19:33:44;18.50;99.90
10512;DHT22;5304;48.604;2.096;2023-08-31T19:36:28;18.50;99.90
10512;DHT22;5304;48.604;2.096;2023-08-31T19:39:13;18.50;99.90
10512;DHT22;5304;48.604;2.096;2023-08-31T19:41:59;18.50;99.90
10512;DHT22;5304;48.604;2.096;2023-08-31T19:44:44;18.50;99.90
10512;DHT22;5304;48.604;2.096;2023-08-31T19:47:29;18.50;99.90
10512;DHT22;5304;48.604;2.096;2023-08-31T19:50:14;18.50;99.90
10512;DHT22;5304;48.604;2.096;2023-08-31T19:52:58;18.50;99.90
10512;DHT22;5304;48.604;2.096;2023-08-31T19:55:43;18.50;99.90
10512;DHT22;5304;48.604;2.096;2023-08-31T19:58:27;18.60;99.90
10512;DHT22;5304;48.604;2.096;2023-08-31T20:01:11;18.60;99.90
10512;DHT22;5304;48.604;2.096;2023-08-31T20:03:56;18.60;99.90
10512;DHT22;5304;48.604;2.096;2023-08-31T20:06:40;18.60;99.90
10512;DHT22;5304;48.604;2.096;2023-08-31T20:09:24;18.60;99.90
10512;DHT22;5304;48.604;2.096;2023-08-31T20:12:10;18.70;99.90
10512;DHT22;5304;48.604;2.096;2023-08-31T20:14:54;18.70;99.90
10512;DHT22;5304;48.604;2.096;2023-08-31T20:17:38;18.80;99.90
10512;DHT22;5304;48.604;2.096;2023-08-31T20:20:26;18.90;99.90
10512;DHT22;5304;48.604;2.096;2023-08-31T20:23:11;18.90;99.90
10512;DHT22;5304;48.604;2.096;2023-08-31T20:25:57;18.90;99.90
10512;DHT22;5304;48.604;2.096;2023-08-31T20:28:42;18.90;99.90
10512;DHT22;5304;48.604;2.096;2023-08-31T20:31:27;18.90;99.90
10512;DHT22;5304;48.604;2.096;2023-08-31T20:34:12;18.90;99.90
10512;DHT22;5304;48.604;2.096;2023-08-31T20:36:56;18.90;99.90
10512;DHT22;5304;48.604;2.096;2023-08-31T20:39:44;19.00;99.90
10512;DHT22;5304;48.604;2.096;2023-08-31T20:42:28;18.90;99.90
